M/V Manukai — WRGD — position and weather

sailwx.info

Track history (hours):
 
Tides and Currents Weather Stations Pressure Air Temp Water Temp Dewpoint Dewpoint Depression Visibility Wind Speed Wind Dir Waves Ship Positions

M/V Manukai

Owner: Matson Navigation Company, Inc., Oakland, CA. More information available from US FCC via Universal Licensing System and Coast Guard Vessel Documentation Center.

Last reported at 2015-Jun-27 06:00 UTC. Time now 2015-Jul-04 22:30 UTC.
Position N 20°24' W 176°54'.

Type: Ship (hazmat cat A). MMSI: 369296000.

Wind from 060 at 20 knots

Waves 1.5 meters (5 feet), 2 second period

Barometer 1018.0 mb
Air temperature 27.0 ° C
Visibility: greater than 10.8 NM
Dewpoint 25.7 ° C
Water temperature 27.0 ° C

Date/timePositionNaut miles runAvg speedWind from/ knotsBaromVisibWave heightAir tempDewpointWater temp
2015-Jun-27 06:00N 20°24' W 176°54'42223.4 060 / 201018.010.8 1.527.025.727.0
2015-Jun-26 12:00N 20°48' W 169°24'51621.5 060 / 251018.0 23.020.127.0
2015-Jun-25 12:00N 21°06' W 160°12'   070 / 191017.510.8 23.020.126.7
2015-Jun-21 06:00N 23°42' W 152°00'79721.6 070 / 81016.910.8 0.523.018.525.6
2015-Jun-19 17:00N 28°30' W 138°12'13126.2 050 / 151022.010.8 0.519.015.921.1
2015-Jun-19 12:00N 29°06' W 135°48'27020.8 070 / 121021.910.8 0.518.013.018.0
2015-Jun-18 23:00N 30°18' W 130°48'7729.4 030 / 241022.0 17.511.920.1
2015-Jun-18 20:23N 30°38' W 129°22'2222.2
2015-Jun-18 19:23N 30°43' W 128°57'1922.1
2015-Jun-18 18:32N 30°47' W 128°36'3022.1
2015-Jun-18 17:12N 30°53' W 128°02'1522.0
2015-Jun-18 16:30N 30°57' W 127°45'2222.1
2015-Jun-18 15:31N 31°01' W 127°20'4721.9
2015-Jun-18 13:23N 31°11' W 126°26'1822.0
2015-Jun-18 12:33N 31°15' W 126°05'2221.9
2015-Jun-18 11:34N 31°19' W 125°40'2222.3
2015-Jun-18 10:34N 31°23' W 125°15'2222.4
2015-Jun-18 09:33N 31°28' W 124°49'2222.3
2015-Jun-18 08:34N 31°32' W 124°23'2222.1
2015-Jun-18 07:33N 31°36' W 123°58'1919.4
2015-Jun-18 06:34N 31°39' W 123°35'1817.7
2015-Jun-18 05:34N 31°43' W 123°15'2019.6
2015-Jun-18 04:34N 31°46' W 122°52'1919.4
2015-Jun-18 03:34N 31°48' W 122°30'1919.2
2015-Jun-18 02:34N 31°51' W 122°07'2118.9
2015-Jun-18 01:26N 31°54' W 121°43'1618.6
2015-Jun-18 00:33N 31°57' W 121°23'3818.7
2015-Jun-17 22:32N 32°02' W 120°39'1818.7
2015-Jun-17 21:34N 32°04' W 120°18'1818.1
2015-Jun-17 20:34N 32°14' W 119°60'1919.4
2015-Jun-17 19:34N 32°28' W 119°45'2119.4
2015-Jun-17 18:30N 32°44' W 119°28'1819.4
2015-Jun-17 17:34N 32°57' W 119°13'1919.4
2015-Jun-17 16:34N 33°11' W 118°58'1919.1
2015-Jun-17 15:34N 33°25' W 118°42'1312.5
2015-Jun-17 14:33N 33°32' W 118°30'1111.5
2015-Jun-17 13:33N 33°35' W 118°16'9 9.4
2015-Jun-17 12:33N 33°44' W 118°12'2 2.3
2015-Jun-17 11:33N 33°46' W 118°13'0 0.0
2015-Jun-17 10:33N 33°46' W 118°13'0 0.0
2015-Jun-17 09:30N 33°46' W 118°13'0 0.0
2015-Jun-17 08:33N 33°46' W 118°13'0 0.0
2015-Jun-17 07:33N 33°46' W 118°13'0 0.0
2015-Jun-17 06:33N 33°46' W 118°13'  
Track history (hours):
 
Tides and Currents Weather Stations Pressure Air Temp Water Temp Dewpoint Dewpoint Depression Visibility Wind Speed Wind Dir Waves Ship Positions

M/V Manukai

Owner: Matson Navigation Company, Inc., Oakland, CA. More information available from US FCC via Universal Licensing System and Coast Guard Vessel Documentation Center.

Last reported at 2015-Jun-27 06:00 UTC. Time now 2015-Jul-04 22:30 UTC.
Position N 20°24' W 176°54'.

Type: Ship (hazmat cat A). MMSI: 369296000.

Wind from 060 at 20 knots

Waves 1.5 meters (5 feet), 2 second period

Barometer 1018.0 mb
Air temperature 27.0 ° C
Visibility: greater than 10.8 NM
Dewpoint 25.7 ° C
Water temperature 27.0 ° C

Date/timePositionNaut miles runAvg speedWind from/ knotsBaromVisibWave heightAir tempDewpointWater temp
2015-Jun-27 06:00N 20°24' W 176°54'42223.4 060 / 201018.010.8 1.527.025.727.0
2015-Jun-26 12:00N 20°48' W 169°24'51621.5 060 / 251018.0 23.020.127.0
2015-Jun-25 12:00N 21°06' W 160°12'   070 / 191017.510.8 23.020.126.7
2015-Jun-21 06:00N 23°42' W 152°00'79721.6 070 / 81016.910.8 0.523.018.525.6
2015-Jun-19 17:00N 28°30' W 138°12'13126.2 050 / 151022.010.8 0.519.015.921.1
2015-Jun-19 12:00N 29°06' W 135°48'27020.8 070 / 121021.910.8 0.518.013.018.0
2015-Jun-18 23:00N 30°18' W 130°48'7729.4 030 / 241022.0 17.511.920.1
2015-Jun-18 20:23N 30°38' W 129°22'2222.2
2015-Jun-18 19:23N 30°43' W 128°57'1922.1
2015-Jun-18 18:32N 30°47' W 128°36'3022.1
2015-Jun-18 17:12N 30°53' W 128°02'1522.0
2015-Jun-18 16:30N 30°57' W 127°45'2222.1
2015-Jun-18 15:31N 31°01' W 127°20'4721.9
2015-Jun-18 13:23N 31°11' W 126°26'1822.0
2015-Jun-18 12:33N 31°15' W 126°05'2221.9
2015-Jun-18 11:34N 31°19' W 125°40'2222.3
2015-Jun-18 10:34N 31°23' W 125°15'2222.4
2015-Jun-18 09:33N 31°28' W 124°49'2222.3
2015-Jun-18 08:34N 31°32' W 124°23'2222.1
2015-Jun-18 07:33N 31°36' W 123°58'1919.4
2015-Jun-18 06:34N 31°39' W 123°35'1817.7
2015-Jun-18 05:34N 31°43' W 123°15'2019.6
2015-Jun-18 04:34N 31°46' W 122°52'1919.4
2015-Jun-18 03:34N 31°48' W 122°30'1919.2
2015-Jun-18 02:34N 31°51' W 122°07'2118.9
2015-Jun-18 01:26N 31°54' W 121°43'1618.6
2015-Jun-18 00:33N 31°57' W 121°23'3818.7
2015-Jun-17 22:32N 32°02' W 120°39'1818.7
2015-Jun-17 21:34N 32°04' W 120°18'1818.1
2015-Jun-17 20:34N 32°14' W 119°60'1919.4
2015-Jun-17 19:34N 32°28' W 119°45'2119.4
2015-Jun-17 18:30N 32°44' W 119°28'1819.4
2015-Jun-17 17:34N 32°57' W 119°13'1919.4
2015-Jun-17 16:34N 33°11' W 118°58'1919.1
2015-Jun-17 15:34N 33°25' W 118°42'1312.5
2015-Jun-17 14:33N 33°32' W 118°30'1111.5
2015-Jun-17 13:33N 33°35' W 118°16'9 9.4
2015-Jun-17 12:33N 33°44' W 118°12'2 2.3
2015-Jun-17 11:33N 33°46' W 118°13'0 0.0
2015-Jun-17 10:33N 33°46' W 118°13'0 0.0
2015-Jun-17 09:30N 33°46' W 118°13'0 0.0
2015-Jun-17 08:33N 33°46' W 118°13'0 0.0
2015-Jun-17 07:33N 33°46' W 118°13'0 0.0
2015-Jun-17 06:33N 33°46' W 118°13'  

Dump ship's entire track history